sensor_id;sensor_type;location;lat;lon;timestamp;pressure;altitude;pressure_sealevel;temperature;humidity
25650;BME280;13505;45.196;5.696;2023-12-20T05:32:33;99757.84;;;5.39;98.92
25650;BME280;13505;45.196;5.696;2023-12-20T05:37:24;99758.91;;;5.27;98.95
25650;BME280;13505;45.196;5.696;2023-12-20T05:42:14;99752.66;;;5.36;99.78
25650;BME280;13505;45.196;5.696;2023-12-20T05:47:05;99753.69;;;5.26;100.00
25650;BME280;13505;45.196;5.696;2023-12-20T05:51:55;99752.66;;;5.36;100.00
25650;BME280;13505;45.196;5.696;2023-12-20T05:56:45;99760.38;;;5.45;98.70
25650;BME280;13505;45.196;5.696;2023-12-20T06:01:36;99764.00;;;5.37;99.25
25650;BME280;13505;45.196;5.696;2023-12-20T06:06:26;99771.66;;;5.49;99.42
25650;BME280;13505;45.196;5.696;2023-12-20T06:11:17;99775.09;;;5.51;99.98
25650;BME280;13505;45.196;5.696;2023-12-20T06:16:07;99776.78;;;5.55;99.80
25650;BME280;13505;45.196;5.696;2023-12-20T06:20:57;99768.22;;;5.45;100.00
25650;BME280;13505;45.196;5.696;2023-12-20T06:25:48;99765.41;;;5.56;100.00
25650;BME280;13505;45.196;5.696;2023-12-20T06:30:38;99759.25;;;5.61;99.33
25650;BME280;13505;45.196;5.696;2023-12-20T06:35:28;99761.91;;;5.59;99.83
25650;BME280;13505;45.196;5.696;2023-12-20T06:40:19;99759.28;;;5.59;100.00
25650;BME280;13505;45.196;5.696;2023-12-20T06:45:10;99752.22;;;5.64;100.00
25650;BME280;13505;45.196;5.696;2023-12-20T06:50:00;99754.78;;;5.69;100.00
25650;BME280;13505;45.196;5.696;2023-12-20T06:54:51;99763.47;;;5.71;100.00
25650;BME280;13505;45.196;5.696;2023-12-20T06:59:41;99755.75;;;5.63;100.00
25650;BME280;13505;45.196;5.696;2023-12-20T07:04:31;99755.69;;;5.66;100.00
25650;BME280;13505;45.196;5.696;2023-12-20T07:09:22;99763.59;;;5.63;100.00
25650;BME280;13505;45.196;5.696;2023-12-20T07:14:12;99780.06;;;5.70;100.00
25650;BME280;13505;45.196;5.696;2023-12-20T07:19:02;99783.50;;;5.73;100.00
25650;BME280;13505;45.196;5.696;2023-12-20T07:23:53;99776.56;;;5.69;100.00
25650;BME280;13505;45.196;5.696;2023-12-20T07:28:43;99789.94;;;5.51;100.00
25650;BME280;13505;45.196;5.696;2023-12-20T07:33:34;99781.94;;;5.60;100.00
25650;BME280;13505;45.196;5.696;2023-12-20T07:38:24;99776.84;;;5.52;100.00
25650;BME280;13505;45.196;5.696;2023-12-20T07:43:14;99778.56;;;5.53;100.00
25650;BME280;13505;45.196;5.696;2023-12-20T07:48:06;99780.66;;;5.31;100.00
25650;BME280;13505;45.196;5.696;2023-12-20T07:52:56;99788.13;;;5.56;100.00
25650;BME280;13505;45.196;5.696;2023-12-20T07:57:49;99792.53;;;5.52;100.00
25650;BME280;13505;45.196;5.696;2023-12-20T08:02:39;99795.63;;;5.78;100.00
25650;BME280;13505;45.196;5.696;2023-12-20T08:07:30;99797.38;;;5.77;100.00
25650;BME280;13505;45.196;5.696;2023-12-20T08:12:20;99797.31;;;5.82;100.00
25650;BME280;13505;45.196;5.696;2023-12-20T08:17:10;99795.56;;;5.82;100.00
25650;BME280;13505;45.196;5.696;2023-12-20T08:22:01;99803.97;;;6.03;100.00
25650;BME280;13505;45.196;5.696;2023-12-20T08:26:51;99807.97;;;6.24;97.33
25650;BME280;13505;45.196;5.696;2023-12-20T08:31:42;99812.13;;;6.36;97.12
25650;BME280;13505;45.196;5.696;2023-12-20T08:36:33;99809.66;;;6.27;97.77
25650;BME280;13505;45.196;5.696;2023-12-20T08:41:23;99831.00;;;6.07;99.57
25650;BME280;13505;45.196;5.696;2023-12-20T08:46:14;99824.94;;;6.00;100.00
25650;BME280;13505;45.196;5.696;2023-12-20T08:51:05;99842.41;;;5.99;100.00
25650;BME280;13505;45.196;5.696;2023-12-20T08:55:58;99833.84;;;5.90;100.00
25650;BME280;13505;45.196;5.696;2023-12-20T09:00:51;99835.75;;;5.80;100.00
25650;BME280;13505;45.196;5.696;2023-12-20T09:05:41;99836.41;;;5.93;100.00
25650;BME280;13505;45.196;5.696;2023-12-20T09:10:32;99819.69;;;6.03;100.00
25650;BME280;13505;45.196;5.696;2023-12-20T09:15:26;99829.53;;;5.87;100.00
25650;BME280;13505;45.196;5.696;2023-12-20T09:20:16;99836.41;;;5.93;100.00
25650;BME280;13505;45.196;5.696;2023-12-20T09:25:08;99838.72;;;6.13;100.00
25650;BME280;13505;45.196;5.696;2023-12-20T09:29:58;99829.88;;;6.20;100.00
25650;BME280;13505;45.196;5.696;2023-12-20T09:34:48;99838.84;;;6.55;100.00
25650;BME280;13505;45.196;5.696;2023-12-20T09:39:39;99841.13;;;6.74;100.00
25650;BME280;13505;45.196;5.696;2023-12-20T09:44:30;99846.94;;;6.89;100.00
25650;BME280;13505;45.196;5.696;2023-12-20T09:49:21;99824.03;;;6.98;100.00
25650;BME280;13505;45.196;5.696;2023-12-20T09:54:16;99839.31;;;7.20;100.00
25650;BME280;13505;45.196;5.696;2023-12-20T09:59:06;99842.97;;;7.11;100.00
25650;BME280;13505;45.196;5.696;2023-12-20T10:03:57;99839.03;;;7.34;100.00
25650;BME280;13505;45.196;5.696;2023-12-20T10:08:49;99829.06;;;7.50;100.00
25650;BME280;13505;45.196;5.696;2023-12-20T10:13:40;99830.50;;;7.64;100.00
25650;BME280;13505;45.196;5.696;2023-12-20T10:18:32;99825.16;;;7.67;100.00
25650;BME280;13505;45.196;5.696;2023-12-20T10:23:22;99805.13;;;7.63;100.00
25650;BME280;13505;45.196;5.696;2023-12-20T10:28:16;99816.41;;;7.29;100.00
25650;BME280;13505;45.196;5.696;2023-12-20T10:33:12;99803.84;;;7.42;100.00
25650;BME280;13505;45.196;5.696;2023-12-20T10:38:04;99805.25;;;7.57;100.00
25650;BME280;13505;45.196;5.696;2023-12-20T10:42:56;99796.44;;;7.21;100.00
25650;BME280;13505;45.196;5.696;2023-12-20T10:47:47;99800.81;;;7.21;100.00
25650;BME280;13505;45.196;5.696;2023-12-20T10:52:40;99791.00;;;7.68;100.00
25650;BME280;13505;45.196;5.696;2023-12-20T10:57:31;99779.94;;;7.54;100.00
25650;BME280;13505;45.196;5.696;2023-12-20T11:02:24;99768.16;;;7.34;100.00
25650;BME280;13505;45.196;5.696;2023-12-20T11:07:54;99775.34;;;7.64;100.00
25650;BME280;13505;45.196;5.696;2023-12-20T11:13:03;99776.88;;;7.73;100.00
25650;BME280;13505;45.196;5.696;2023-12-20T11:17:59;99769.97;;;7.70;100.00
25650;BME280;13505;45.196;5.696;2023-12-20T11:22:53;99760.06;;;7.80;100.00
25650;BME280;13505;45.196;5.696;2023-12-20T11:28:07;99772.09;;;7.89;100.00
25650;BME280;13505;45.196;5.696;2023-12-20T11:32:59;99777.66;;;7.76;100.00
25650;BME280;13505;45.196;5.696;2023-12-20T11:37:51;99772.03;;;7.92;100.00
25650;BME280;13505;45.196;5.696;2023-12-20T11:42:42;99765.66;;;7.66;100.00
25650;BME280;13505;45.196;5.696;2023-12-20T11:47:33;99749.78;;;8.05;100.00
25650;BME280;13505;45.196;5.696;2023-12-20T11:52:25;99757.50;;;8.12;100.00
25650;BME280;13505;45.196;5.696;2023-12-20T11:57:15;99761.78;;;8.16;98.87
25650;BME280;13505;45.196;5.696;2023-12-20T12:02:06;99760.19;;;8.10;99.24
25650;BME280;13505;45.196;5.696;2023-12-20T12:06:56;99772.44;;;8.09;98.99
25650;BME280;13505;45.196;5.696;2023-12-20T12:11:47;99762.47;;;8.22;99.08
25650;BME280;13505;45.196;5.696;2023-12-20T12:16:37;99767.38;;;8.36;98.41
25650;BME280;13505;45.196;5.696;2023-12-20T12:21:28;99766.59;;;8.33;98.35
25650;BME280;13505;45.196;5.696;2023-12-20T12:26:18;99767.19;;;8.43;98.09
25650;BME280;13505;45.196;5.696;2023-12-20T12:31:13;99759.44;;;8.38;99.15
25650;BME280;13505;45.196;5.696;2023-12-20T12:36:07;99760.06;;;8.48;97.42
25650;BME280;13505;45.196;5.696;2023-12-20T12:40:57;99754.31;;;8.67;96.03
25650;BME280;13505;45.196;5.696;2023-12-20T12:45:49;99757.66;;;8.72;93.86
25650;BME280;13505;45.196;5.696;2023-12-20T12:50:39;99748.19;;;8.64;92.61
25650;BME280;13505;45.196;5.696;2023-12-20T12:55:29;99751.72;;;8.65;92.26
25650;BME280;13505;45.196;5.696;2023-12-20T13:00:20;99755.00;;;8.73;90.75
25650;BME280;13505;45.196;5.696;2023-12-20T13:05:10;99747.00;;;8.76;90.54
25650;BME280;13505;45.196;5.696;2023-12-20T13:10:01;99743.41;;;8.79;89.63
25650;BME280;13505;45.196;5.696;2023-12-20T13:14:52;99742.75;;;8.72;89.82
25650;BME280;13505;45.196;5.696;2023-12-20T13:19:43;99738.94;;;8.83;89.20
25650;BME280;13505;45.196;5.696;2023-12-20T13:24:34;99748.06;;;8.99;86.88
25650;BME280;13505;45.196;5.696;2023-12-20T13:29:25;99752.81;;;9.16;86.24
25650;BME280;13505;45.196;5.696;2023-12-20T13:34:17;99769.75;;;9.07;87.56
25650;BME280;13505;45.196;5.696;2023-12-20T13:39:07;99772.38;;;9.09;90.36
25650;BME280;13505;45.196;5.696;2023-12-20T13:43:58;99786.97;;;8.89;92.23
25650;BME280;13505;45.196;5.696;2023-12-20T13:48:48;99802.47;;;8.69;95.77
25650;BME280;13505;45.196;5.696;2023-12-20T13:53:39;99809.56;;;8.65;96.51
25650;BME280;13505;45.196;5.696;2023-12-20T13:58:30;99806.38;;;8.54;95.18
25650;BME280;13505;45.196;5.696;2023-12-20T14:03:20;99820.69;;;8.42;96.32
25650;BME280;13505;45.196;5.696;2023-12-20T14:08:11;99812.13;;;8.33;97.78
25650;BME280;13505;45.196;5.696;2023-12-20T14:13:01;99811.59;;;8.20;97.39
25650;BME280;13505;45.196;5.696;2023-12-20T14:17:52;99821.03;;;8.28;98.63
25650;BME280;13505;45.196;5.696;2023-12-20T14:22:42;99823.84;;;8.21;98.28
25650;BME280;13505;45.196;5.696;2023-12-20T14:27:34;99841.19;;;8.29;96.58
25650;BME280;13505;45.196;5.696;2023-12-20T14:32:24;99851.75;;;8.26;95.61
25650;BME280;13505;45.196;5.696;2023-12-20T14:37:17;99858.53;;;8.00;95.85
25650;BME280;13505;45.196;5.696;2023-12-20T14:42:08;99858.22;;;8.12;95.43
25650;BME280;13505;45.196;5.696;2023-12-20T14:47:04;99859.25;;;8.06;93.71
25650;BME280;13505;45.196;5.696;2023-12-20T14:51:55;99861.31;;;7.93;91.95
25650;BME280;13505;45.196;5.696;2023-12-20T14:56:45;99866.06;;;7.77;92.06
25650;BME280;13505;45.196;5.696;2023-12-20T15:01:36;99861.81;;;7.72;89.35
25650;BME280;13505;45.196;5.696;2023-12-20T15:06:26;99866.31;;;7.66;89.38
25650;BME280;13505;45.196;5.696;2023-12-20T15:11:17;99869.16;;;7.57;89.88
25650;BME280;13505;45.196;5.696;2023-12-20T15:16:07;99865.69;;;7.55;88.63
25650;BME280;13505;45.196;5.696;2023-12-20T15:20:57;99863.31;;;7.44;89.47
25650;BME280;13505;45.196;5.696;2023-12-20T15:25:48;99870.28;;;7.45;88.68
25650;BME280;13505;45.196;5.696;2023-12-20T15:30:38;99879.16;;;7.39;88.10
25650;BME280;13505;45.196;5.696;2023-12-20T15:35:29;99884.31;;;7.44;88.84
25650;BME280;13505;45.196;5.696;2023-12-20T15:40:20;99881.94;;;7.32;88.23
25650;BME280;13505;45.196;5.696;2023-12-20T15:45:11;99886.28;;;7.33;87.70
25650;BME280;13505;45.196;5.696;2023-12-20T15:50:02;99889.28;;;7.16;86.30
25650;BME280;13505;45.196;5.696;2023-12-20T15:54:53;99889.09;;;7.23;86.36
25650;BME280;13505;45.196;5.696;2023-12-20T15:59:43;99890.97;;;7.18;86.12
25650;BME280;13505;45.196;5.696;2023-12-20T16:04:34;99887.50;;;7.16;86.43
25650;BME280;13505;45.196;5.696;2023-12-20T16:09:24;99887.59;;;7.11;86.13
25650;BME280;13505;45.196;5.696;2023-12-20T16:14:15;99890.34;;;7.07;85.13
25650;BME280;13505;45.196;5.696;2023-12-20T16:19:08;99897.34;;;7.05;85.18
25650;BME280;13505;45.196;5.696;2023-12-20T16:23:58;99906.09;;;7.05;85.00
25650;BME280;13505;45.196;5.696;2023-12-20T16:28:48;99911.31;;;7.07;85.22
25650;BME280;13505;45.196;5.696;2023-12-20T16:33:39;99901.75;;;7.04;85.62
25650;BME280;13505;45.196;5.696;2023-12-20T16:38:29;99903.47;;;7.05;85.02
25650;BME280;13505;45.196;5.696;2023-12-20T16:43:19;99901.75;;;7.03;83.17
25650;BME280;13505;45.196;5.696;2023-12-20T16:48:10;99906.28;;;6.96;81.13
25650;BME280;13505;45.196;5.696;2023-12-20T16:53:00;99906.34;;;6.93;81.08
25650;BME280;13505;45.196;5.696;2023-12-20T16:57:51;99905.53;;;6.88;80.07
25650;BME280;13505;45.196;5.696;2023-12-20T17:02:41;99908.06;;;6.94;79.62
25650;BME280;13505;45.196;5.696;2023-12-20T17:07:31;99902.81;;;6.94;78.84
25650;BME280;13505;45.196;5.696;2023-12-20T17:12:23;99914.22;;;6.93;79.16
25650;BME280;13505;45.196;5.696;2023-12-20T17:17:16;99914.31;;;6.87;80.47
25650;BME280;13505;45.196;5.696;2023-12-20T17:22:06;99901.44;;;6.74;82.72
25650;BME280;13505;45.196;5.696;2023-12-20T17:26:58;99915.31;;;6.79;83.08
25650;BME280;13505;45.196;5.696;2023-12-20T17:31:49;99919.72;;;6.79;82.89
25650;BME280;13505;45.196;5.696;2023-12-20T17:36:40;99924.94;;;6.80;80.74
25650;BME280;13505;45.196;5.696;2023-12-20T17:41:31;99917.75;;;6.90;80.36
25650;BME280;13505;45.196;5.696;2023-12-20T17:46:22;99934.41;;;6.88;81.34
25650;BME280;13505;45.196;5.696;2023-12-20T17:51:13;99957.19;;;6.84;81.14
25650;BME280;13505;45.196;5.696;2023-12-20T17:56:04;99963.47;;;6.75;81.63
25650;BME280;13505;45.196;5.696;2023-12-20T18:00:54;99968.78;;;6.70;82.09
25650;BME280;13505;45.196;5.696;2023-12-20T18:05:45;99982.78;;;6.71;81.08
25650;BME280;13505;45.196;5.696;2023-12-20T18:10:35;99980.91;;;6.78;81.37
25650;BME280;13505;45.196;5.696;2023-12-20T18:15:25;99975.59;;;6.81;80.70
25650;BME280;13505;45.196;5.696;2023-12-20T18:20:16;99983.69;;;6.70;81.04
25650;BME280;13505;45.196;5.696;2023-12-20T18:25:07;99992.59;;;6.58;82.26
25650;BME280;13505;45.196;5.696;2023-12-20T18:29:57;99993.56;;;6.54;81.52
25650;BME280;13505;45.196;5.696;2023-12-20T18:34:55;99981.13;;;6.65;81.42
25650;BME280;13505;45.196;5.696;2023-12-20T18:39:45;99985.41;;;6.69;80.74
25650;BME280;13505;45.196;5.696;2023-12-20T18:44:36;99991.69;;;6.61;81.13
25650;BME280;13505;45.196;5.696;2023-12-20T18:49:27;99979.56;;;6.53;81.45
25650;BME280;13505;45.196;5.696;2023-12-20T18:54:17;99990.88;;;6.55;80.76
25650;BME280;13505;45.196;5.696;2023-12-20T18:59:08;99987.13;;;6.72;79.85
25650;BME280;13505;45.196;5.696;2023-12-20T19:03:59;99983.84;;;6.57;80.81
25650;BME280;13505;45.196;5.696;2023-12-20T19:08:50;100001.34;;;6.57;80.27
25650;BME280;13505;45.196;5.696;2023-12-20T19:13:42;100003.31;;;6.44;81.03
25650;BME280;13505;45.196;5.696;2023-12-20T19:18:32;100015.56;;;6.40;81.68
25650;BME280;13505;45.196;5.696;2023-12-20T19:23:23;100009.50;;;6.38;81.33
25650;BME280;13505;45.196;5.696;2023-12-20T19:28:13;100004.47;;;6.24;82.01
25650;BME280;13505;45.196;5.696;2023-12-20T19:33:04;100013.25;;;6.22;81.81
25650;BME280;13505;45.196;5.696;2023-12-20T19:37:55;100009.16;;;6.02;82.95
25650;BME280;13505;45.196;5.696;2023-12-20T19:42:45;100016.06;;;6.08;82.87
25650;BME280;13505;45.196;5.696;2023-12-20T19:47:36;100023.69;;;6.25;82.01
25650;BME280;13505;45.196;5.696;2023-12-20T19:52:26;100020.31;;;6.15;81.58
25650;BME280;13505;45.196;5.696;2023-12-20T19:57:18;100025.53;;;6.17;81.74
25650;BME280;13505;45.196;5.696;2023-12-20T20:02:08;100019.53;;;6.08;80.92
25650;BME280;13505;45.196;5.696;2023-12-20T20:06:59;100023.09;;;6.03;80.97
25650;BME280;13505;45.196;5.696;2023-12-20T20:11:49;100008.22;;;6.05;81.77
25650;BME280;13505;45.196;5.696;2023-12-20T20:16:40;100022.22;;;6.04;81.08
25650;BME280;13505;45.196;5.696;2023-12-20T20:21:31;100026.56;;;6.05;81.36
25650;BME280;13505;45.196;5.696;2023-12-20T20:26:21;100022.41;;;5.86;81.96
25650;BME280;13505;45.196;5.696;2023-12-20T20:31:12;100025.81;;;5.95;81.24
25650;BME280;13505;45.196;5.696;2023-12-20T20:36:02;100032.81;;;5.91;81.46
25650;BME280;13505;45.196;5.696;2023-12-20T20:40:55;100019.78;;;5.88;80.97
25650;BME280;13505;45.196;5.696;2023-12-20T20:45:45;100023.34;;;5.82;81.09
25650;BME280;13505;45.196;5.696;2023-12-20T20:50:36;100033.72;;;5.89;80.54
25650;BME280;13505;45.196;5.696;2023-12-20T20:55:26;100034.88;;;5.66;81.21
25650;BME280;13505;45.196;5.696;2023-12-20T21:00:16;100027.88;;;5.68;81.72
25650;BME280;13505;45.196;5.696;2023-12-20T21:05:07;100028.69;;;5.75;81.64
25650;BME280;13505;45.196;5.696;2023-12-20T21:09:58;100025.34;;;5.63;81.54
25650;BME280;13505;45.196;5.696;2023-12-20T21:14:48;100033.03;;;5.76;81.45
25650;BME280;13505;45.196;5.696;2023-12-20T21:19:39;100039.28;;;5.62;81.35
25650;BME280;13505;45.196;5.696;2023-12-20T21:24:29;100027.19;;;5.55;81.27
25650;BME280;13505;45.196;5.696;2023-12-20T21:29:20;100016.59;;;5.64;81.52
25650;BME280;13505;45.196;5.696;2023-12-20T21:34:10;100009.66;;;5.60;82.15
25650;BME280;13505;45.196;5.696;2023-12-20T21:39:00;100004.47;;;5.57;81.06
25650;BME280;13505;45.196;5.696;2023-12-20T21:43:51;99982.81;;;5.44;82.42
25650;BME280;13505;45.196;5.696;2023-12-20T21:48:43;99982.69;;;5.52;82.22
25650;BME280;13505;45.196;5.696;2023-12-20T21:53:33;99994.03;;;5.54;81.02
25650;BME280;13505;45.196;5.696;2023-12-20T21:58:23;99990.59;;;5.50;82.13
25650;BME280;13505;45.196;5.696;2023-12-20T22:03:14;99992.41;;;5.42;82.28
25650;BME280;13505;45.196;5.696;2023-12-20T22:08:05;99988.06;;;5.42;82.08
25650;BME280;13505;45.196;5.696;2023-12-20T22:12:56;99971.59;;;5.34;82.28
25650;BME280;13505;45.196;5.696;2023-12-20T22:17:46;99968.94;;;5.36;82.12
25650;BME280;13505;45.196;5.696;2023-12-20T22:22:37;99977.75;;;5.28;83.24
25650;BME280;13505;45.196;5.696;2023-12-20T22:27:27;99975.97;;;5.32;84.30
25650;BME280;13505;45.196;5.696;2023-12-20T22:32:17;99968.13;;;5.32;84.28
25650;BME280;13505;45.196;5.696;2023-12-20T22:37:08;99984.66;;;5.34;84.55
25650;BME280;13505;45.196;5.696;2023-12-20T22:41:58;99974.31;;;5.25;85.77
25650;BME280;13505;45.196;5.696;2023-12-20T22:46:48;99997.00;;;5.23;86.28
25650;BME280;13505;45.196;5.696;2023-12-20T22:51:39;99986.34;;;5.38;84.50
25650;BME280;13505;45.196;5.696;2023-12-20T22:56:29;99988.91;;;5.43;84.84
